sensor_id;sensor_type;location;lat;lon;timestamp;pressure;altitude;pressure_sealevel;temperature;humidity
30598;BME280;17365;48.878;8.334;2023-01-25T00:01:22;101831.63;;;2.82;99.34
30598;BME280;17365;48.878;8.334;2023-01-25T00:03:47;101827.06;;;3.06;99.06
30598;BME280;17365;48.878;8.334;2023-01-25T00:06:12;101826.41;;;2.80;99.65
30598;BME280;17365;48.878;8.334;2023-01-25T00:08:38;101818.72;;;3.08;98.95
30598;BME280;17365;48.878;8.334;2023-01-25T00:11:03;101824.72;;;3.09;98.09
30598;BME280;17365;48.878;8.334;2023-01-25T00:13:29;101816.72;;;2.89;98.44
30598;BME280;17365;48.878;8.334;2023-01-25T00:16:00;101824.06;;;2.98;97.71
30598;BME280;17365;48.878;8.334;2023-01-25T00:18:26;101815.34;;;3.24;96.55
30598;BME280;17365;48.878;8.334;2023-01-25T00:20:51;101814.00;;;3.16;97.15
30598;BME280;17365;48.878;8.334;2023-01-25T00:23:16;101800.25;;;3.29;96.57
30598;BME280;17365;48.878;8.334;2023-01-25T00:25:42;101801.75;;;2.82;98.24
30598;BME280;17365;48.878;8.334;2023-01-25T00:28:07;101805.00;;;3.08;97.67
30598;BME280;17365;48.878;8.334;2023-01-25T00:30:32;101802.94;;;2.87;97.81
30598;BME280;17365;48.878;8.334;2023-01-25T00:33:06;101795.00;;;2.98;97.53
30598;BME280;17365;48.878;8.334;2023-01-25T00:35:50;101792.34;;;2.96;97.63
30598;BME280;17365;48.878;8.334;2023-01-25T00:38:34;101796.13;;;2.88;98.09
30598;BME280;17365;48.878;8.334;2023-01-25T00:40:59;101793.41;;;2.72;98.98
30598;BME280;17365;48.878;8.334;2023-01-25T00:43:25;101797.38;;;2.95;98.65
30598;BME280;17365;48.878;8.334;2023-01-25T00:45:51;101788.19;;;3.13;97.54
30598;BME280;17365;48.878;8.334;2023-01-25T00:48:16;101790.50;;;3.23;97.56
30598;BME280;17365;48.878;8.334;2023-01-25T00:50:41;101788.84;;;2.81;98.33
30598;BME280;17365;48.878;8.334;2023-01-25T00:53:06;101783.66;;;2.94;98.40
30598;BME280;17365;48.878;8.334;2023-01-25T00:55:32;101776.97;;;3.11;97.37
30598;BME280;17365;48.878;8.334;2023-01-25T00:57:57;101777.78;;;3.10;97.39
30598;BME280;17365;48.878;8.334;2023-01-25T01:00:22;101765.47;;;2.89;97.81
30598;BME280;17365;48.878;8.334;2023-01-25T01:02:47;101773.59;;;2.54;99.63
30598;BME280;17365;48.878;8.334;2023-01-25T01:05:13;101766.50;;;2.78;98.70
30598;BME280;17365;48.878;8.334;2023-01-25T01:07:38;101768.88;;;2.60;98.60
30598;BME280;17365;48.878;8.334;2023-01-25T01:10:04;101766.97;;;3.01;97.81
30598;BME280;17365;48.878;8.334;2023-01-25T01:12:29;101756.00;;;3.03;97.52
30598;BME280;17365;48.878;8.334;2023-01-25T01:14:56;101760.00;;;3.13;97.54
30598;BME280;17365;48.878;8.334;2023-01-25T01:17:21;101757.44;;;2.98;97.78
30598;BME280;17365;48.878;8.334;2023-01-25T01:19:46;101757.22;;;2.80;98.32
30598;BME280;17365;48.878;8.334;2023-01-25T01:22:12;101760.59;;;2.94;97.95
30598;BME280;17365;48.878;8.334;2023-01-25T01:24:37;101757.53;;;2.57;100.00
30598;BME280;17365;48.878;8.334;2023-01-25T01:27:02;101751.84;;;2.48;100.00
30598;BME280;17365;48.878;8.334;2023-01-25T01:29:28;101765.34;;;2.73;99.70
30598;BME280;17365;48.878;8.334;2023-01-25T01:31:53;101771.94;;;2.70;100.00
30598;BME280;17365;48.878;8.334;2023-01-25T01:34:19;101781.22;;;2.68;99.42
30598;BME280;17365;48.878;8.334;2023-01-25T01:36:45;101776.69;;;2.91;99.06
30598;BME280;17365;48.878;8.334;2023-01-25T01:39:10;101775.19;;;2.95;98.80
30598;BME280;17365;48.878;8.334;2023-01-25T01:41:36;101773.13;;;2.75;98.84
30598;BME280;17365;48.878;8.334;2023-01-25T01:44:02;101765.13;;;2.83;99.23
30598;BME280;17365;48.878;8.334;2023-01-25T01:46:34;101763.16;;;2.94;99.39
30598;BME280;17365;48.878;8.334;2023-01-25T01:49:23;101762.22;;;2.64;99.87
30598;BME280;17365;48.878;8.334;2023-01-25T01:52:00;101757.69;;;2.88;99.29
30598;BME280;17365;48.878;8.334;2023-01-25T01:54:40;101752.38;;;2.85;98.79
30598;BME280;17365;48.878;8.334;2023-01-25T01:57:14;101755.44;;;2.79;98.27
30598;BME280;17365;48.878;8.334;2023-01-25T02:02:12;101760.41;;;3.06;98.49
30598;BME280;17365;48.878;8.334;2023-01-25T02:04:38;101762.97;;;2.76;99.47
30598;BME280;17365;48.878;8.334;2023-01-25T02:07:08;101758.09;;;2.81;98.94
30598;BME280;17365;48.878;8.334;2023-01-25T02:09:37;101756.50;;;2.83;100.00
30598;BME280;17365;48.878;8.334;2023-01-25T02:12:04;101758.63;;;2.75;99.92
30598;BME280;17365;48.878;8.334;2023-01-25T02:14:30;101754.75;;;2.82;98.93
30598;BME280;17365;48.878;8.334;2023-01-25T02:16:56;101760.72;;;2.68;99.63
30598;BME280;17365;48.878;8.334;2023-01-25T02:19:42;101749.53;;;2.80;99.37
30598;BME280;17365;48.878;8.334;2023-01-25T02:22:12;101754.00;;;2.70;100.00
30598;BME280;17365;48.878;8.334;2023-01-25T02:24:45;101753.84;;;2.81;99.12
30598;BME280;17365;48.878;8.334;2023-01-25T02:27:13;101750.41;;;2.81;98.97
30598;BME280;17365;48.878;8.334;2023-01-25T02:29:39;101750.00;;;2.60;100.00
30598;BME280;17365;48.878;8.334;2023-01-25T02:32:05;101739.56;;;2.85;99.31
30598;BME280;17365;48.878;8.334;2023-01-25T02:34:30;101750.00;;;2.60;100.00
30598;BME280;17365;48.878;8.334;2023-01-25T02:36:56;101740.31;;;2.69;100.00
30598;BME280;17365;48.878;8.334;2023-01-25T02:39:22;101741.41;;;2.73;100.00
30598;BME280;17365;48.878;8.334;2023-01-25T02:41:50;101748.78;;;2.96;99.39
30598;BME280;17365;48.878;8.334;2023-01-25T02:44:17;101736.91;;;2.83;99.80
30598;BME280;17365;48.878;8.334;2023-01-25T02:46:44;101734.25;;;2.82;100.00
30598;BME280;17365;48.878;8.334;2023-01-25T02:49:10;101726.13;;;2.74;99.77
30598;BME280;17365;48.878;8.334;2023-01-25T02:51:40;101724.09;;;2.98;98.90
30598;BME280;17365;48.878;8.334;2023-01-25T02:54:08;101719.13;;;2.72;98.82
30598;BME280;17365;48.878;8.334;2023-01-25T02:56:34;101725.63;;;2.95;98.88
30598;BME280;17365;48.878;8.334;2023-01-25T02:59:00;101732.63;;;2.69;100.00
30598;BME280;17365;48.878;8.334;2023-01-25T03:01:40;101723.72;;;2.62;99.55
30598;BME280;17365;48.878;8.334;2023-01-25T03:04:07;101715.25;;;2.78;99.86
30598;BME280;17365;48.878;8.334;2023-01-25T03:06:33;101718.09;;;2.98;99.29
30598;BME280;17365;48.878;8.334;2023-01-25T03:09:00;101715.63;;;2.99;98.94
30598;BME280;17365;48.878;8.334;2023-01-25T03:11:25;101722.09;;;3.07;99.19
30598;BME280;17365;48.878;8.334;2023-01-25T03:13:50;101724.78;;;2.66;99.85
30598;BME280;17365;48.878;8.334;2023-01-25T03:16:16;101722.63;;;2.59;99.98
30598;BME280;17365;48.878;8.334;2023-01-25T03:18:42;101716.72;;;2.60;100.00
30598;BME280;17365;48.878;8.334;2023-01-25T03:21:10;101716.38;;;2.54;100.00
30598;BME280;17365;48.878;8.334;2023-01-25T03:23:36;101717.00;;;2.65;100.00
30598;BME280;17365;48.878;8.334;2023-01-25T03:26:10;101715.81;;;2.59;100.00
30598;BME280;17365;48.878;8.334;2023-01-25T03:28:36;101714.03;;;2.44;100.00
30598;BME280;17365;48.878;8.334;2023-01-25T03:31:02;101711.28;;;2.83;100.00
30598;BME280;17365;48.878;8.334;2023-01-25T03:33:27;101714.38;;;2.92;99.42
30598;BME280;17365;48.878;8.334;2023-01-25T03:35:53;101705.53;;;3.02;99.04
30598;BME280;17365;48.878;8.334;2023-01-25T03:38:19;101704.09;;;2.63;99.88
30598;BME280;17365;48.878;8.334;2023-01-25T03:40:47;101710.53;;;2.71;99.88
30598;BME280;17365;48.878;8.334;2023-01-25T03:43:13;101714.63;;;2.82;100.00
30598;BME280;17365;48.878;8.334;2023-01-25T03:45:38;101711.09;;;2.80;100.00
30598;BME280;17365;48.878;8.334;2023-01-25T03:48:04;101702.44;;;2.93;100.00
30598;BME280;17365;48.878;8.334;2023-01-25T03:50:29;101696.06;;;2.72;100.00
30598;BME280;17365;48.878;8.334;2023-01-25T03:52:54;101700.66;;;2.77;100.00
30598;BME280;17365;48.878;8.334;2023-01-25T03:55:26;101696.34;;;2.61;100.00
30598;BME280;17365;48.878;8.334;2023-01-25T03:57:52;101705.69;;;2.61;100.00
30598;BME280;17365;48.878;8.334;2023-01-25T04:00:17;101703.63;;;2.41;100.00
30598;BME280;17365;48.878;8.334;2023-01-25T04:02:45;101703.16;;;2.76;100.00
30598;BME280;17365;48.878;8.334;2023-01-25T04:05:10;101704.91;;;2.62;100.00
30598;BME280;17365;48.878;8.334;2023-01-25T04:07:35;101702.94;;;2.58;100.00
30598;BME280;17365;48.878;8.334;2023-01-25T04:10:00;101697.41;;;2.80;100.00
30598;BME280;17365;48.878;8.334;2023-01-25T04:12:26;101691.75;;;2.85;100.00
30598;BME280;17365;48.878;8.334;2023-01-25T04:14:51;101699.63;;;2.74;100.00
30598;BME280;17365;48.878;8.334;2023-01-25T04:17:16;101697.94;;;2.74;100.00
30598;BME280;17365;48.878;8.334;2023-01-25T04:19:41;101698.19;;;2.64;100.00
30598;BME280;17365;48.878;8.334;2023-01-25T04:22:07;101692.75;;;2.45;100.00
30598;BME280;17365;48.878;8.334;2023-01-25T04:24:33;101699.06;;;2.79;100.00
30598;BME280;17365;48.878;8.334;2023-01-25T04:26:58;101696.19;;;2.73;100.00
30598;BME280;17365;48.878;8.334;2023-01-25T04:29:23;101694.50;;;2.31;100.00
30598;BME280;17365;48.878;8.334;2023-01-25T04:31:48;101684.03;;;2.41;100.00
30598;BME280;17365;48.878;8.334;2023-01-25T04:34:14;101686.53;;;2.26;100.00
30598;BME280;17365;48.878;8.334;2023-01-25T04:36:39;101687.81;;;2.48;100.00
30598;BME280;17365;48.878;8.334;2023-01-25T04:39:04;101682.44;;;2.43;100.00
30598;BME280;17365;48.878;8.334;2023-01-25T04:41:29;101684.50;;;2.63;100.00
30598;BME280;17365;48.878;8.334;2023-01-25T04:43:55;101680.59;;;2.70;100.00
30598;BME280;17365;48.878;8.334;2023-01-25T04:46:20;101685.78;;;2.42;100.00
30598;BME280;17365;48.878;8.334;2023-01-25T04:48:45;101680.69;;;2.57;100.00
30598;BME280;17365;48.878;8.334;2023-01-25T04:51:11;101677.06;;;2.53;100.00
30598;BME280;17365;48.878;8.334;2023-01-25T04:53:36;101687.31;;;2.53;100.00
30598;BME280;17365;48.878;8.334;2023-01-25T04:56:01;101677.69;;;2.64;100.00
30598;BME280;17365;48.878;8.334;2023-01-25T04:58:26;101677.31;;;2.58;100.00
30598;BME280;17365;48.878;8.334;2023-01-25T05:00:52;101668.13;;;2.47;100.00
30598;BME280;17365;48.878;8.334;2023-01-25T05:03:17;101678.91;;;2.71;100.00
30598;BME280;17365;48.878;8.334;2023-01-25T05:05:45;101680.44;;;2.82;100.00
30598;BME280;17365;48.878;8.334;2023-01-25T05:08:11;101675.94;;;2.63;100.00
30598;BME280;17365;48.878;8.334;2023-01-25T05:10:36;101672.81;;;2.54;100.00
30598;BME280;17365;48.878;8.334;2023-01-25T05:13:01;101670.25;;;2.54;100.00
30598;BME280;17365;48.878;8.334;2023-01-25T05:15:27;101672.66;;;2.66;100.00
30598;BME280;17365;48.878;8.334;2023-01-25T05:17:52;101672.66;;;2.51;100.00
30598;BME280;17365;48.878;8.334;2023-01-25T05:20:17;101672.44;;;2.33;100.00
30598;BME280;17365;48.878;8.334;2023-01-25T05:22:42;101672.75;;;2.24;100.00
30598;BME280;17365;48.878;8.334;2023-01-25T05:25:08;101672.09;;;2.42;100.00
30598;BME280;17365;48.878;8.334;2023-01-25T05:27:53;101677.78;;;2.51;100.00
30598;BME280;17365;48.878;8.334;2023-01-25T05:30:18;101674.13;;;2.47;100.00
30598;BME280;17365;48.878;8.334;2023-01-25T05:32:44;101677.53;;;2.18;100.00
30598;BME280;17365;48.878;8.334;2023-01-25T05:35:09;101671.22;;;2.56;100.00
30598;BME280;17365;48.878;8.334;2023-01-25T05:37:34;101672.25;;;2.30;100.00
30598;BME280;17365;48.878;8.334;2023-01-25T05:40:00;101670.13;;;2.38;100.00
30598;BME280;17365;48.878;8.334;2023-01-25T05:42:25;101666.97;;;2.42;100.00
30598;BME280;17365;48.878;8.334;2023-01-25T05:44:50;101666.41;;;2.32;100.00
30598;BME280;17365;48.878;8.334;2023-01-25T05:47:16;101667.06;;;2.43;100.00
30598;BME280;17365;48.878;8.334;2023-01-25T05:49:41;101670.41;;;2.27;100.00
30598;BME280;17365;48.878;8.334;2023-01-25T05:52:12;101677.72;;;2.36;100.00
30598;BME280;17365;48.878;8.334;2023-01-25T05:54:37;101675.75;;;2.17;100.00
30598;BME280;17365;48.878;8.334;2023-01-25T05:57:03;101675.59;;;2.29;100.00
30598;BME280;17365;48.878;8.334;2023-01-25T05:59:28;101672.75;;;2.24;100.00
30598;BME280;17365;48.878;8.334;2023-01-25T06:01:53;101668.56;;;2.40;100.00
30598;BME280;17365;48.878;8.334;2023-01-25T06:04:19;101669.28;;;2.52;100.00
30598;BME280;17365;48.878;8.334;2023-01-25T06:06:44;101675.31;;;2.24;100.00
30598;BME280;17365;48.878;8.334;2023-01-25T06:09:11;101673.25;;;2.47;100.00
30598;BME280;17365;48.878;8.334;2023-01-25T06:11:37;101673.88;;;2.15;100.00
30598;BME280;17365;48.878;8.334;2023-01-25T06:14:02;101673.38;;;2.20;100.00
30598;BME280;17365;48.878;8.334;2023-01-25T06:16:28;101661.56;;;2.37;100.00
30598;BME280;17365;48.878;8.334;2023-01-25T06:18:53;101659.72;;;2.34;100.00
30598;BME280;17365;48.878;8.334;2023-01-25T06:21:19;101652.91;;;2.35;100.00
30598;BME280;17365;48.878;8.334;2023-01-25T06:23:44;101647.03;;;2.66;100.00
30598;BME280;17365;48.878;8.334;2023-01-25T06:26:11;101635.13;;;2.09;100.00
30598;BME280;17365;48.878;8.334;2023-01-25T06:28:37;101639.75;;;2.29;100.00
30598;BME280;17365;48.878;8.334;2023-01-25T06:31:11;101633.94;;;2.31;100.00
30598;BME280;17365;48.878;8.334;2023-01-25T06:33:37;101631.09;;;2.27;100.00
30598;BME280;17365;48.878;8.334;2023-01-25T06:36:05;101629.06;;;2.21;100.00
30598;BME280;17365;48.878;8.334;2023-01-25T06:38:31;101631.72;;;2.38;100.00
30598;BME280;17365;48.878;8.334;2023-01-25T06:40:58;101628.25;;;2.22;100.00
30598;BME280;17365;48.878;8.334;2023-01-25T06:43:24;101624.47;;;2.16;100.00
30598;BME280;17365;48.878;8.334;2023-01-25T06:45:49;101628.97;;;2.34;100.00
30598;BME280;17365;48.878;8.334;2023-01-25T06:48:14;101625.59;;;2.21;100.00
30598;BME280;17365;48.878;8.334;2023-01-25T06:50:40;101623.78;;;2.48;100.00
30598;BME280;17365;48.878;8.334;2023-01-25T06:53:05;101614.00;;;2.41;100.00
30598;BME280;17365;48.878;8.334;2023-01-25T06:55:30;101625.63;;;2.36;100.00
30598;BME280;17365;48.878;8.334;2023-01-25T06:57:59;101631.19;;;2.28;100.00
30598;BME280;17365;48.878;8.334;2023-01-25T07:00:24;101627.75;;;2.43;100.00
30598;BME280;17365;48.878;8.334;2023-01-25T07:02:50;101634.56;;;2.42;100.00
30598;BME280;17365;48.878;8.334;2023-01-25T07:05:15;101626.06;;;2.28;100.00
30598;BME280;17365;48.878;8.334;2023-01-25T07:07:44;101625.63;;;2.36;100.00
30598;BME280;17365;48.878;8.334;2023-01-25T07:10:09;101627.53;;;2.25;100.00
30598;BME280;17365;48.878;8.334;2023-01-25T07:12:35;101636.03;;;2.24;100.00
30598;BME280;17365;48.878;8.334;2023-01-25T07:15:01;101625.06;;;2.12;100.00
30598;BME280;17365;48.878;8.334;2023-01-25T07:17:26;101630.84;;;1.94;100.00
30598;BME280;17365;48.878;8.334;2023-01-25T07:19:51;101631.69;;;2.23;100.00
30598;BME280;17365;48.878;8.334;2023-01-25T07:22:16;101629.91;;;2.07;100.00
30598;BME280;17365;48.878;8.334;2023-01-25T07:24:42;101626.38;;;2.05;100.00
30598;BME280;17365;48.878;8.334;2023-01-25T07:27:13;101631.97;;;1.85;100.00
30598;BME280;17365;48.878;8.334;2023-01-25T07:29:39;101623.53;;;2.00;100.00
30598;BME280;17365;48.878;8.334;2023-01-25T07:32:05;101630.00;;;2.09;100.00
30598;BME280;17365;48.878;8.334;2023-01-25T07:34:30;101624.03;;;2.23;100.00
30598;BME280;17365;48.878;8.334;2023-01-25T07:36:56;101628.00;;;1.90;100.00
30598;BME280;17365;48.878;8.334;2023-01-25T07:39:21;101629.38;;;2.13;100.00
30598;BME280;17365;48.878;8.334;2023-01-25T07:41:46;101644.00;;;2.00;100.00
30598;BME280;17365;48.878;8.334;2023-01-25T07:44:11;101631.59;;;2.07;100.00
30598;BME280;17365;48.878;8.334;2023-01-25T07:46:37;101633.25;;;2.06;100.00
30598;BME280;17365;48.878;8.334;2023-01-25T07:49:02;101633.13;;;2.18;100.00
30598;BME280;17365;48.878;8.334;2023-01-25T07:51:27;101634.06;;;2.05;100.00
30598;BME280;17365;48.878;8.334;2023-01-25T07:56:38;101632.38;;;2.06;100.00
30598;BME280;17365;48.878;8.334;2023-01-25T07:59:04;101626.16;;;2.15;100.00
30598;BME280;17365;48.878;8.334;2023-01-25T08:01:32;101626.03;;;2.14;100.00
30598;BME280;17365;48.878;8.334;2023-01-25T08:03:58;101627.59;;;2.40;100.00
30598;BME280;17365;48.878;8.334;2023-01-25T08:06:26;101635.22;;;2.25;100.00
30598;BME280;17365;48.878;8.334;2023-01-25T08:08:56;101636.41;;;2.30;100.00
30598;BME280;17365;48.878;8.334;2023-01-25T08:11:24;101634.28;;;2.38;100.00
30598;BME280;17365;48.878;8.334;2023-01-25T08:13:50;101636.72;;;2.21;100.00
30598;BME280;17365;48.878;8.334;2023-01-25T08:16:19;101638.81;;;2.14;100.00
30598;BME280;17365;48.878;8.334;2023-01-25T08:18:49;101639.53;;;2.11;100.00
30598;BME280;17365;48.878;8.334;2023-01-25T08:21:15;101646.47;;;1.99;100.00
30598;BME280;17365;48.878;8.334;2023-01-25T08:23:40;101639.06;;;2.03;100.00
30598;BME280;17365;48.878;8.334;2023-01-25T08:26:08;101632.03;;;2.14;100.00
30598;BME280;17365;48.878;8.334;2023-01-25T08:28:33;101639.34;;;1.80;100.00
30598;BME280;17365;48.878;8.334;2023-01-25T08:31:11;101635.81;;;2.06;100.00
30598;BME280;17365;48.878;8.334;2023-01-25T08:33:37;101639.13;;;2.18;100.00
30598;BME280;17365;48.878;8.334;2023-01-25T08:36:03;101626.38;;;2.05;100.00
30598;BME280;17365;48.878;8.334;2023-01-25T08:38:29;101631.34;;;2.17;100.00
30598;BME280;17365;48.878;8.334;2023-01-25T08:40:54;101623.47;;;2.14;100.00
30598;BME280;17365;48.878;8.334;2023-01-25T08:43:20;101619.28;;;2.29;100.00
30598;BME280;17365;48.878;8.334;2023-01-25T08:45:47;101622.97;;;2.34;100.00
30598;BME280;17365;48.878;8.334;2023-01-25T08:48:19;101620.22;;;2.16;100.00
30598;BME280;17365;48.878;8.334;2023-01-25T08:50:45;101622.00;;;2.17;100.00
30598;BME280;17365;48.878;8.334;2023-01-25T08:53:11;101611.16;;;2.36;100.00
30598;BME280;17365;48.878;8.334;2023-01-25T08:55:37;101614.50;;;2.20;100.00
30598;BME280;17365;48.878;8.334;2023-01-25T08:58:02;101611.84;;;2.33;100.00
30598;BME280;17365;48.878;8.334;2023-01-25T09:00:27;101611.50;;;2.27;100.00
30598;BME280;17365;48.878;8.334;2023-01-25T09:02:52;101608.91;;;2.13;100.00
30598;BME280;17365;48.878;8.334;2023-01-25T09:05:18;101607.59;;;2.19;100.00
30598;BME280;17365;48.878;8.334;2023-01-25T09:07:43;101613.44;;;2.31;100.00
30598;BME280;17365;48.878;8.334;2023-01-25T09:10:09;101608.31;;;2.17;100.00
30598;BME280;17365;48.878;8.334;2023-01-25T09:12:34;101598.78;;;2.44;100.00
30598;BME280;17365;48.878;8.334;2023-01-25T09:15:00;101604.09;;;2.32;100.00
30598;BME280;17365;48.878;8.334;2023-01-25T09:17:26;101608.50;;;2.34;100.00
30598;BME280;17365;48.878;8.334;2023-01-25T09:19:51;101602.16;;;2.43;100.00
30598;BME280;17365;48.878;8.334;2023-01-25T09:22:16;101602.88;;;2.55;100.00
30598;BME280;17365;48.878;8.334;2023-01-25T09:24:42;101612.66;;;2.32;100.00
30598;BME280;17365;48.878;8.334;2023-01-25T09:27:07;101604.50;;;2.25;100.00
30598;BME280;17365;48.878;8.334;2023-01-25T09:29:32;101601.28;;;2.27;100.00
30598;BME280;17365;48.878;8.334;2023-01-25T09:31:57;101606.09;;;2.23;100.00
30598;BME280;17365;48.878;8.334;2023-01-25T09:34:23;101596.41;;;2.47;100.00
30598;BME280;17365;48.878;8.334;2023-01-25T09:36:48;101602.91;;;2.12;100.00
30598;BME280;17365;48.878;8.334;2023-01-25T09:39:13;101597.28;;;2.32;100.00
30598;BME280;17365;48.878;8.334;2023-01-25T09:41:50;101596.50;;;2.33;100.00
30598;BME280;17365;48.878;8.334;2023-01-25T09:44:38;101597.03;;;2.28;100.00
30598;BME280;17365;48.878;8.334;2023-01-25T09:50:24;101603.47;;;2.36;100.00
30598;BME280;17365;48.878;8.334;2023-01-25T09:53:09;101601.63;;;2.63;100.00
30598;BME280;17365;48.878;8.334;2023-01-25T09:55:40;101601.69;;;2.35;100.00
30598;BME280;17365;48.878;8.334;2023-01-25T09:58:12;101599.41;;;2.54;100.00
30598;BME280;17365;48.878;8.334;2023-01-25T10:00:43;101590.16;;;2.42;100.00
30598;BME280;17365;48.878;8.334;2023-01-25T10:03:30;101595.19;;;2.55;100.00
30598;BME280;17365;48.878;8.334;2023-01-25T10:06:00;101588.28;;;2.69;100.00
30598;BME280;17365;48.878;8.334;2023-01-25T10:11:24;101597.13;;;2.44;100.00
30598;BME280;17365;48.878;8.334;2023-01-25T10:13:51;101589.00;;;2.66;100.00
30598;BME280;17365;48.878;8.334;2023-01-25T10:21:28;101593.41;;;2.69;100.00
30598;BME280;17365;48.878;8.334;2023-01-25T10:26:41;101591.38;;;2.63;100.00
30598;BME280;17365;48.878;8.334;2023-01-25T10:29:18;101575.63;;;2.72;100.00
30598;BME280;17365;48.878;8.334;2023-01-25T10:31:50;101575.03;;;2.46;100.00
30598;BME280;17365;48.878;8.334;2023-01-25T10:37:17;101571.25;;;2.54;100.00
30598;BME280;17365;48.878;8.334;2023-01-25T10:42:21;101566.00;;;2.82;99.33
30598;BME280;17365;48.878;8.334;2023-01-25T10:44:48;101563.00;;;2.89;99.84
30598;BME280;17365;48.878;8.334;2023-01-25T10:47:29;101562.66;;;2.83;99.15
30598;BME280;17365;48.878;8.334;2023-01-25T10:49:58;101566.72;;;2.65;99.92
30598;BME280;17365;48.878;8.334;2023-01-25T10:52:29;101554.06;;;2.83;99.41
30598;BME280;17365;48.878;8.334;2023-01-25T10:55:17;101553.28;;;2.69;98.44
30598;BME280;17365;48.878;8.334;2023-01-25T10:57:44;101540.63;;;2.87;98.98
30598;BME280;17365;48.878;8.334;2023-01-25T11:00:36;101543.53;;;2.93;98.21
30598;BME280;17365;48.878;8.334;2023-01-25T11:03:03;101544.09;;;2.87;98.50
30598;BME280;17365;48.878;8.334;2023-01-25T11:07:55;101543.63;;;2.95;97.12
30598;BME280;17365;48.878;8.334;2023-01-25T11:10:34;101544.91;;;3.03;95.88
30598;BME280;17365;48.878;8.334;2023-01-25T11:15:37;101530.50;;;3.05;95.93
30598;BME280;17365;48.878;8.334;2023-01-25T11:18:11;101529.31;;;2.98;96.13
30598;BME280;17365;48.878;8.334;2023-01-25T11:20:38;101521.94;;;2.73;96.24
30598;BME280;17365;48.878;8.334;2023-01-25T11:23:20;101524.69;;;2.92;96.00
30598;BME280;17365;48.878;8.334;2023-01-25T11:25:47;101514.03;;;3.16;95.45
30598;BME280;17365;48.878;8.334;2023-01-25T11:28:30;101512.81;;;3.09;93.87
30598;BME280;17365;48.878;8.334;2023-01-25T11:30:56;101506.59;;;3.37;94.81
30598;BME280;17365;48.878;8.334;2023-01-25T11:33:21;101503.81;;;3.01;94.36
30598;BME280;17365;48.878;8.334;2023-01-25T11:36:08;101498.53;;;2.98;94.58
30598;BME280;17365;48.878;8.334;2023-01-25T11:38:44;101489.97;;;2.98;94.96
30598;BME280;17365;48.878;8.334;2023-01-25T11:41:28;101477.50;;;3.20;94.25
30598;BME280;17365;48.878;8.334;2023-01-25T11:44:42;101470.19;;;2.95;94.51
30598;BME280;17365;48.878;8.334;2023-01-25T11:52:30;101461.47;;;3.08;93.92
30598;BME280;17365;48.878;8.334;2023-01-25T12:00:46;101444.34;;;3.07;94.11
30598;BME280;17365;48.878;8.334;2023-01-25T12:31:13;101397.53;;;3.11;91.82
30598;BME280;17365;48.878;8.334;2023-01-25T12:39:00;101373.34;;;3.22;91.63
30598;BME280;17365;48.878;8.334;2023-01-25T12:44:26;101364.38;;;3.14;91.52
30598;BME280;17365;48.878;8.334;2023-01-25T12:47:29;101354.81;;;3.28;90.69
30598;BME280;17365;48.878;8.334;2023-01-25T12:50:12;101362.97;;;3.37;90.08
30598;BME280;17365;48.878;8.334;2023-01-25T12:52:48;101347.97;;;3.44;90.23
30598;BME280;17365;48.878;8.334;2023-01-25T12:55:16;101349.69;;;3.62;90.48
30598;BME280;17365;48.878;8.334;2023-01-25T12:58:02;101345.00;;;3.53;89.60
30598;BME280;17365;48.878;8.334;2023-01-25T13:00:38;101355.47;;;3.24;90.72
30598;BME280;17365;48.878;8.334;2023-01-25T13:03:20;101347.47;;;3.01;91.87
30598;BME280;17365;48.878;8.334;2023-01-25T13:05:52;101345.78;;;3.18;90.93
30598;BME280;17365;48.878;8.334;2023-01-25T13:11:41;101325.59;;;2.91;91.10
30598;BME280;17365;48.878;8.334;2023-01-25T13:16:51;101326.91;;;2.83;92.23
30598;BME280;17365;48.878;8.334;2023-01-25T13:21:45;101321.34;;;2.92;91.78
30598;BME280;17365;48.878;8.334;2023-01-25T13:24:21;101320.97;;;3.01;91.82
30598;BME280;17365;48.878;8.334;2023-01-25T13:31:58;101312.13;;;3.12;89.89
30598;BME280;17365;48.878;8.334;2023-01-25T13:37:26;101305.28;;;2.95;91.68
30598;BME280;17365;48.878;8.334;2023-01-25T13:39:59;101303.72;;;3.14;90.96
30598;BME280;17365;48.878;8.334;2023-01-25T13:42:33;101294.78;;;2.90;90.65
30598;BME280;17365;48.878;8.334;2023-01-25T13:47:33;101281.56;;;2.99;91.22
30598;BME280;17365;48.878;8.334;2023-01-25T13:53:03;101282.28;;;2.96;90.73
30598;BME280;17365;48.878;8.334;2023-01-25T13:55:38;101274.53;;;3.29;90.22
30598;BME280;17365;48.878;8.334;2023-01-25T13:58:15;101280.69;;;3.50;90.03
30598;BME280;17365;48.878;8.334;2023-01-25T14:00:52;101287.56;;;2.99;90.06
30598;BME280;17365;48.878;8.334;2023-01-25T14:03:19;101280.97;;;3.20;90.47
30598;BME280;17365;48.878;8.334;2023-01-25T14:05:49;101273.88;;;2.99;90.64
30598;BME280;17365;48.878;8.334;2023-01-25T14:08:17;101277.25;;;2.81;91.89
30598;BME280;17365;48.878;8.334;2023-01-25T14:10:43;101276.59;;;3.02;91.11
30598;BME280;17365;48.878;8.334;2023-01-25T14:13:12;101274.63;;;3.14;91.15
30598;BME280;17365;48.878;8.334;2023-01-25T14:15:38;101273.75;;;3.13;90.32
30598;BME280;17365;48.878;8.334;2023-01-25T14:18:14;101271.88;;;2.77;91.42
30598;BME280;17365;48.878;8.334;2023-01-25T14:20:42;101261.88;;;3.15;90.83
30598;BME280;17365;48.878;8.334;2023-01-25T14:23:27;101264.44;;;3.32;89.84
30598;BME280;17365;48.878;8.334;2023-01-25T14:25:55;101257.97;;;3.06;90.35
30598;BME280;17365;48.878;8.334;2023-01-25T14:28:22;101266.53;;;3.22;89.61
30598;BME280;17365;48.878;8.334;2023-01-25T14:30:53;101261.28;;;3.03;89.77
30598;BME280;17365;48.878;8.334;2023-01-25T14:33:26;101259.78;;;2.90;89.60
30598;BME280;17365;48.878;8.334;2023-01-25T14:35:53;101257.81;;;3.03;89.05
30598;BME280;17365;48.878;8.334;2023-01-25T14:41:21;101254.03;;;2.95;89.80
30598;BME280;17365;48.878;8.334;2023-01-25T14:43:49;101244.06;;;3.01;90.11